Adkins, Texas
Current Conditions -  °F | °C
As of 6:58 PM on Friday 24 Oct 2014 (Local Time) from KRND Reporting Station
Clear Clear  
Wind Chill: 77°   Ceiling: Unl
Heat Index: 79°   Visibility: 10mi
Dew Point: 57°   Wind: 6mph
Humidity: 51%   Direction: 130°SE
Pressure: 30.09"   Gusts: NA
Location:  29.39°N, 98.24°W
Report Text: KRND 242358Z AUTO 13005KT 10SM CLR 25/14 A3009 RMK AO2 SLP184 T02490141 10299 20249 55001
Loading
Personal Weather Stations






























Interactive Weather Map New forecast layout! Learn more

10-Day Weather Forecast

Advertisements
Track Severe Weather on mobile